Terminal Aerodrome Forecast
Issued by NWS

Home | Current Version | Previous Version | Text Only | Print | Product List | Glossary On
Versions: 1 2 3 4 5 6 7 8 9 10 11 12 13 14 15 16 17 18 19
000
FTUS41 KPBZ 161700
TAFAGC
TAF
KAGC 161726Z 1618/1718 33005KT P6SM BKN045
     FM162100 32007KT P6SM SCT045
     FM170800 00000KT 4SM BR SKC
     FM171000 00000KT 1SM BR SCT002
     FM171500 25005KT P6SM SCT040=

USA.gov is the U.S. government's official web portal to all federal, state and local government web resources and services.